createdAt,value
2019-04-06T00:00:07.028Z,84.81
2019-04-06T00:00:45.603Z,84.81
2019-04-06T00:01:27.105Z,84.95
2019-04-06T00:02:06.263Z,84.95
2019-04-06T00:02:41.823Z,84.53
2019-04-06T00:03:17.665Z,84.53
2019-04-06T00:03:53.610Z,84.62
2019-04-06T00:04:29.420Z,84.98
2019-04-06T00:05:05.202Z,84.98
2019-04-06T00:05:40.651Z,84.80
2019-04-06T00:06:16.067Z,84.76
2019-04-06T00:06:51.888Z,84.76
2019-04-06T00:07:27.361Z,84.78
2019-04-06T00:08:02.915Z,84.49
2019-04-06T00:08:38.453Z,84.86
2019-04-06T00:09:14.018Z,85.02
2019-04-06T00:09:49.456Z,85.02
2019-04-06T00:10:24.936Z,84.94
2019-04-06T00:11:00.725Z,84.97
2019-04-06T00:11:36.164Z,84.97
2019-04-06T00:12:11.590Z,84.29
2019-04-06T00:12:47.094Z,84.29
2019-04-06T00:13:22.531Z,84.68
2019-04-06T00:13:58.118Z,84.84
2019-04-06T00:14:33.593Z,84.60
2019-04-06T00:15:09.227Z,84.75
2019-04-06T00:15:44.691Z,84.75
2019-04-06T00:16:20.128Z,84.75
2019-04-06T00:16:55.608Z,84.75
2019-04-06T00:17:31.384Z,84.69
2019-04-06T00:18:06.820Z,84.98
2019-04-06T00:18:42.262Z,84.71
2019-04-06T00:19:17.788Z,84.71
2019-04-06T00:19:53.239Z,84.93
2019-04-06T00:20:28.732Z,84.88
2019-04-06T00:21:04.926Z,84.88
2019-04-06T00:21:40.662Z,85.09
2019-04-06T00:22:16.077Z,85.09
2019-04-06T00:22:51.532Z,85.19
2019-04-06T00:23:27.344Z,85.19
2019-04-06T00:24:02.807Z,84.71
2019-04-06T00:24:38.221Z,84.71
2019-04-06T00:25:14.014Z,84.97
2019-04-06T00:25:49.638Z,84.26
2019-04-06T00:26:25.106Z,84.26
2019-04-06T00:27:01.301Z,84.15
2019-04-06T00:27:36.720Z,84.09
2019-04-06T00:28:12.177Z,83.91
2019-04-06T00:28:47.694Z,83.91
2019-04-06T00:29:23.449Z,83.64
2019-04-06T00:29:58.920Z,83.70
2019-04-06T00:30:43.078Z,83.62
2019-04-06T00:31:26.552Z,83.62
2019-04-06T00:32:06.328Z,83.99
2019-04-06T00:32:47.021Z,83.99
2019-04-06T00:33:22.438Z,83.81
2019-04-06T00:33:57.945Z,83.99
2019-04-06T00:34:33.456Z,84.36
2019-04-06T00:35:08.981Z,84.36
2019-04-06T00:35:44.424Z,83.95
2019-04-06T00:36:19.968Z,83.78
2019-04-06T00:36:55.579Z,83.54
2019-04-06T00:37:31.365Z,83.64
2019-04-06T00:38:07.374Z,83.64
2019-04-06T00:38:43.129Z,83.63
2019-04-06T00:39:18.550Z,83.86
2019-04-06T00:39:54.034Z,83.97
2019-04-06T00:40:29.514Z,83.97
2019-04-06T00:41:05.376Z,83.73
2019-04-06T00:41:40.818Z,83.73
2019-04-06T00:42:16.258Z,84.00
2019-04-06T00:42:51.687Z,84.09
2019-04-06T00:43:27.172Z,83.83
2019-04-06T00:44:02.710Z,83.93
2019-04-06T00:44:38.606Z,83.93
2019-04-06T00:45:14.127Z,83.86
2019-04-06T00:45:49.563Z,83.75
2019-04-06T00:46:25.055Z,83.63
2019-04-06T00:47:00.533Z,83.63
2019-04-06T00:47:35.932Z,83.84
2019-04-06T00:48:11.355Z,83.48
2019-04-06T00:48:46.863Z,83.48
2019-04-06T00:49:22.308Z,82.97
2019-04-06T00:49:57.785Z,82.97
2019-04-06T00:50:33.252Z,83.06
2019-04-06T00:51:08.649Z,83.00
2019-04-06T00:51:44.157Z,83.22
2019-04-06T00:52:19.979Z,83.22
2019-04-06T00:52:55.471Z,83.34
2019-04-06T00:53:31.347Z,83.54
2019-04-06T00:54:06.783Z,83.75
2019-04-06T00:54:42.219Z,83.87
2019-04-06T00:55:17.639Z,83.84
2019-04-06T00:55:55.966Z,83.94
2019-04-06T00:56:30.350Z,83.94
2019-04-06T00:57:06.061Z,83.94
2019-04-06T00:57:41.468Z,83.94
2019-04-06T00:58:16.955Z,83.81
2019-04-06T00:58:52.376Z,83.79
2019-04-06T00:59:27.813Z,83.73
2019-04-06T01:00:03.257Z,83.73
2019-04-06T01:00:38.691Z,83.54
2019-04-06T01:01:14.342Z,83.54
2019-04-06T01:01:49.776Z,84.15
2019-04-06T01:02:25.259Z,84.15
2019-04-06T01:03:00.782Z,83.54
2019-04-06T01:03:36.647Z,83.54
2019-04-06T01:04:12.074Z,82.87
2019-04-06T01:04:47.513Z,82.87
2019-04-06T01:05:22.976Z,82.00
2019-04-06T01:05:58.563Z,82.00
2019-04-06T01:06:34.371Z,82.14
2019-04-06T01:07:09.788Z,82.03
2019-04-06T01:07:45.187Z,82.70
2019-04-06T01:08:21.345Z,82.70
2019-04-06T01:08:56.806Z,82.55
2019-04-06T01:09:32.298Z,82.91
2019-04-06T01:10:07.817Z,82.77
2019-04-06T01:10:43.592Z,82.93
2019-04-06T01:11:19.330Z,82.94
2019-04-06T01:11:54.821Z,83.38
2019-04-06T01:12:30.279Z,83.29
2019-04-06T01:13:05.708Z,82.84
2019-04-06T01:13:41.214Z,82.84
2019-04-06T01:14:16.659Z,82.87
2019-04-06T01:14:52.692Z,82.87
2019-04-06T01:15:28.558Z,83.11
2019-04-06T01:16:04.089Z,82.60
2019-04-06T01:16:39.577Z,82.60
2019-04-06T01:17:15.040Z,82.70
2019-04-06T01:17:50.985Z,82.45
2019-04-06T01:18:26.788Z,82.69
2019-04-06T01:19:02.328Z,82.25
2019-04-06T01:19:37.740Z,82.49
2019-04-06T01:20:13.493Z,82.49
2019-04-06T01:20:48.921Z,82.72
2019-04-06T01:21:24.502Z,82.47
2019-04-06T01:22:00.316Z,82.19
2019-04-06T01:22:35.766Z,82.19
2019-04-06T01:23:11.226Z,82.07
2019-04-06T01:23:47.094Z,81.67
2019-04-06T01:24:22.534Z,81.87
2019-04-06T01:24:58.030Z,81.72
2019-04-06T01:25:33.585Z,81.72
2019-04-06T01:26:09.456Z,81.63
2019-04-06T01:26:45.240Z,81.63
2019-04-06T01:27:20.730Z,82.05
2019-04-06T01:27:56.229Z,82.05
2019-04-06T01:28:32.068Z,81.78
2019-04-06T01:29:07.636Z,81.36
2019-04-06T01:29:43.016Z,81.36
2019-04-06T01:30:18.574Z,81.08
2019-04-06T01:30:54.389Z,81.13
2019-04-06T01:31:29.879Z,80.95
2019-04-06T01:32:05.653Z,81.06
2019-04-06T01:32:41.455Z,80.41
2019-04-06T01:33:16.826Z,80.03
2019-04-06T01:33:52.412Z,79.73
2019-04-06T01:34:27.823Z,79.73
2019-04-06T01:35:03.237Z,79.86
2019-04-06T01:35:38.660Z,79.84
2019-04-06T01:36:14.433Z,79.68
2019-04-06T01:36:49.882Z,79.68
2019-04-06T01:37:25.325Z,80.08
2019-04-06T01:38:00.805Z,80.08
2019-04-06T01:38:36.224Z,80.10
2019-04-06T01:39:11.642Z,79.81
2019-04-06T01:39:47.062Z,79.81
2019-04-06T01:40:22.865Z,79.71
2019-04-06T01:40:58.350Z,79.71
2019-04-06T01:41:33.768Z,79.53
2019-04-06T01:42:09.245Z,79.54
2019-04-06T01:42:44.685Z,79.45
2019-04-06T01:43:20.119Z,79.87
2019-04-06T01:43:55.973Z,80.18
2019-04-06T01:44:31.842Z,80.18
2019-04-06T01:45:07.925Z,80.58
2019-04-06T01:45:43.444Z,80.56
2019-04-06T01:46:19.247Z,81.03
2019-04-06T01:46:54.917Z,81.03
2019-04-06T01:47:30.388Z,81.00
2019-04-06T01:48:06.152Z,80.97
2019-04-06T01:48:41.658Z,80.97
2019-04-06T01:49:17.764Z,81.12
2019-04-06T01:49:53.283Z,81.19
2019-04-06T01:50:28.732Z,81.13
2019-04-06T01:51:04.216Z,81.13
2019-04-06T01:51:39.689Z,81.30
2019-04-06T01:52:15.122Z,81.57
2019-04-06T01:52:51.272Z,81.56
2019-04-06T01:53:27.008Z,81.94
2019-04-06T01:54:03.161Z,81.47
2019-04-06T01:54:39.298Z,82.02
2019-04-06T01:55:15.467Z,82.02
2019-04-06T01:55:50.956Z,81.78
2019-04-06T01:56:26.616Z,81.78
2019-04-06T01:57:02.387Z,81.82
2019-04-06T01:57:37.808Z,81.82
2019-04-06T01:58:13.263Z,81.89
2019-04-06T01:58:48.678Z,81.48
2019-04-06T01:59:24.325Z,80.94
2019-04-06T01:59:59.844Z,81.14
2019-04-06T02:00:35.927Z,81.14
2019-04-06T02:01:36.852Z,80.87
2019-04-06T02:02:26.064Z,80.87
2019-04-06T02:03:01.872Z,80.84
2019-04-06T02:03:37.300Z,80.91
2019-04-06T02:04:12.745Z,81.00
2019-04-06T02:04:48.447Z,81.11
2019-04-06T02:05:24.012Z,81.08
2019-04-06T02:05:59.520Z,81.54
2019-04-06T02:06:34.977Z,81.38
2019-04-06T02:07:10.753Z,81.38
2019-04-06T02:07:46.193Z,81.40
2019-04-06T02:08:21.625Z,81.76
2019-04-06T02:08:57.115Z,81.52
2019-04-06T02:09:32.834Z,81.70
2019-04-06T02:10:08.469Z,81.55
2019-04-06T02:10:43.879Z,81.76
2019-04-06T02:11:19.367Z,81.28
2019-04-06T02:11:55.725Z,81.28
2019-04-06T02:12:31.277Z,81.54
2019-04-06T02:13:06.982Z,81.54
2019-04-06T02:13:42.426Z,81.91
2019-04-06T02:14:17.841Z,81.91
2019-04-06T02:14:53.571Z,82.03
2019-04-06T02:15:29.215Z,81.84
2019-04-06T02:16:04.887Z,81.84
2019-04-06T02:16:40.517Z,81.93
2019-04-06T02:17:16.412Z,81.90
2019-04-06T02:17:51.790Z,81.94
2019-04-06T02:18:27.235Z,81.92
2019-04-06T02:19:03.276Z,81.97
2019-04-06T02:19:38.648Z,81.81
2019-04-06T02:20:14.647Z,81.74
2019-04-06T02:20:50.391Z,81.86
2019-04-06T02:21:26.157Z,81.83
2019-04-06T02:22:01.637Z,81.76
2019-04-06T02:22:37.076Z,81.32
2019-04-06T02:23:12.500Z,81.11
2019-04-06T02:23:48.501Z,81.00
2019-04-06T02:24:24.812Z,80.94
2019-04-06T02:25:00.454Z,80.76
2019-04-06T02:25:35.997Z,80.80
2019-04-06T02:26:11.429Z,80.82
2019-04-06T02:26:46.839Z,80.82
2019-04-06T02:27:22.299Z,80.86
2019-04-06T02:27:57.819Z,81.02
2019-04-06T02:28:33.651Z,81.22
2019-04-06T02:29:09.099Z,81.37
2019-04-06T02:29:45.525Z,81.45
2019-04-06T02:30:25.270Z,81.61
2019-04-06T02:31:13.316Z,81.61
2019-04-06T02:32:08.238Z,81.60
2019-04-06T02:33:05.638Z,82.03
2019-04-06T02:34:15.674Z,82.03
2019-04-06T02:35:16.264Z,81.48
2019-04-06T02:36:09.266Z,81.74
2019-04-06T02:37:02.567Z,81.74
2019-04-06T02:38:15.165Z,81.65
2019-04-06T02:38:58.482Z,81.65
2019-04-06T02:39:49.876Z,81.64
2019-04-06T02:40:39.698Z,81.70
2019-04-06T02:41:49.612Z,81.70
2019-04-06T02:42:29.993Z,81.82
2019-04-06T02:43:11.840Z,81.92
2019-04-06T02:43:47.571Z,81.92
2019-04-06T02:44:23.044Z,81.91
2019-04-06T02:44:58.579Z,81.91
2019-04-06T02:45:34.002Z,81.90
2019-04-06T02:46:09.472Z,81.79
2019-04-06T02:46:44.873Z,81.79
2019-04-06T02:47:20.396Z,81.86
2019-04-06T02:47:56.235Z,81.59
2019-04-06T02:48:32.077Z,81.83
2019-04-06T02:49:07.522Z,81.83
2019-04-06T02:49:42.952Z,81.94
2019-04-06T02:50:18.380Z,81.97
2019-04-06T02:50:53.887Z,81.89
2019-04-06T02:51:29.597Z,81.84
2019-04-06T02:52:05.075Z,81.65
2019-04-06T02:52:40.541Z,81.80
2019-04-06T02:53:16.045Z,81.80
2019-04-06T02:53:51.475Z,81.93
2019-04-06T02:54:27.267Z,81.99
2019-04-06T02:55:02.748Z,82.10
2019-04-06T02:55:38.418Z,82.17
2019-04-06T02:56:13.968Z,82.18
2019-04-06T02:56:49.678Z,82.17
2019-04-06T02:57:25.578Z,82.17
2019-04-06T02:58:01.066Z,82.07
2019-04-06T02:58:36.471Z,82.07
2019-04-06T02:59:12.963Z,82.25
2019-04-06T02:59:48.503Z,82.16
2019-04-06T03:00:23.984Z,82.16
2019-04-06T03:00:59.870Z,82.17
2019-04-06T03:01:35.709Z,82.17
2019-04-06T03:02:11.534Z,82.09
2019-04-06T03:02:47.114Z,82.08
2019-04-06T03:03:22.946Z,82.06
2019-04-06T03:03:59.313Z,82.00
2019-04-06T03:04:35.006Z,81.92
2019-04-06T03:05:10.541Z,81.88
2019-04-06T03:05:45.972Z,81.90
2019-04-06T03:06:21.947Z,81.94
2019-04-06T03:06:57.591Z,82.04
2019-04-06T03:07:33.193Z,81.83
2019-04-06T03:08:08.691Z,81.83
2019-04-06T03:08:44.099Z,81.72
2019-04-06T03:09:20.145Z,81.52
2019-04-06T03:09:56.050Z,81.52
2019-04-06T03:10:31.543Z,81.69
2019-04-06T03:11:07.793Z,81.69
2019-04-06T03:11:43.293Z,81.79
2019-04-06T03:12:18.736Z,81.82
2019-04-06T03:12:54.324Z,81.81
2019-04-06T03:13:30.246Z,81.81
2019-04-06T03:14:05.766Z,81.74
2019-04-06T03:14:44.199Z,81.69
2019-04-06T03:15:18.316Z,81.56
2019-04-06T03:15:53.785Z,81.48
2019-04-06T03:16:29.328Z,81.43
2019-04-06T03:17:04.749Z,81.20
2019-04-06T03:17:40.222Z,81.16
2019-04-06T03:18:15.734Z,80.91
2019-04-06T03:18:51.164Z,80.91
2019-04-06T03:19:26.632Z,81.15
2019-04-06T03:20:02.108Z,81.14
2019-04-06T03:20:37.680Z,81.14
2019-04-06T03:21:13.633Z,81.11
2019-04-06T03:21:49.053Z,81.11
2019-04-06T03:22:24.855Z,81.36
2019-04-06T03:23:00.424Z,81.36
2019-04-06T03:23:49.595Z,81.36
2019-04-06T03:24:12.988Z,81.74
2019-04-06T03:24:48.411Z,81.75
2019-04-06T03:25:23.869Z,81.68
2019-04-06T03:25:59.891Z,81.65
2019-04-06T03:26:35.752Z,81.65
2019-04-06T03:27:11.173Z,81.65
2019-04-06T03:27:46.648Z,81.60
2019-04-06T03:28:22.075Z,81.60
2019-04-06T03:28:58.746Z,81.41
2019-04-06T03:29:34.169Z,81.35
2019-04-06T03:30:09.781Z,81.27
2019-04-06T03:30:45.799Z,81.27
2019-04-06T03:31:25.150Z,81.19
2019-04-06T03:32:00.186Z,81.16
2019-04-06T03:32:35.932Z,81.17
2019-04-06T03:33:11.473Z,81.36
2019-04-06T03:33:46.901Z,81.36
2019-04-06T03:34:23.095Z,81.56
2019-04-06T03:34:59.464Z,81.63
2019-04-06T03:35:35.288Z,81.38
2019-04-06T03:36:11.184Z,81.38
2019-04-06T03:36:47.190Z,81.41
2019-04-06T03:37:22.967Z,81.39
2019-04-06T03:37:58.459Z,81.37
2019-04-06T03:38:33.887Z,81.40
2019-04-06T03:39:09.307Z,81.43
2019-04-06T03:39:44.733Z,81.56
2019-04-06T03:40:20.169Z,81.56
2019-04-06T03:40:56.072Z,81.56
2019-04-06T03:41:31.512Z,81.56
2019-04-06T03:42:10.363Z,81.56
2019-04-06T03:42:44.649Z,81.53
2019-04-06T03:43:20.440Z,81.53
2019-04-06T03:43:56.103Z,81.60
2019-04-06T03:44:31.537Z,81.72
2019-04-06T03:45:07.682Z,81.82
2019-04-06T03:45:43.127Z,81.87
2019-04-06T03:46:18.552Z,81.94
2019-04-06T03:46:54.013Z,81.99
2019-04-06T03:47:29.464Z,81.99
2019-04-06T03:48:04.948Z,82.01
2019-04-06T03:48:40.366Z,81.99
2019-04-06T03:49:15.760Z,81.97
2019-04-06T03:49:51.590Z,82.12
2019-04-06T03:50:27.428Z,82.12
2019-04-06T03:51:02.873Z,81.86
2019-04-06T03:51:38.468Z,81.75
2019-04-06T03:52:14.424Z,81.73
2019-04-06T03:52:49.850Z,81.79
2019-04-06T03:53:25.323Z,81.82
2019-04-06T03:54:00.872Z,81.85
2019-04-06T03:54:36.594Z,81.90
2019-04-06T03:55:12.317Z,81.90
2019-04-06T03:55:47.927Z,81.88
2019-04-06T03:56:24.033Z,81.99
2019-04-06T03:57:13.150Z,81.99
2019-04-06T03:57:36.777Z,81.70
2019-04-06T03:58:12.233Z,81.65
2019-04-06T03:58:48.048Z,81.70
2019-04-06T03:59:23.843Z,81.71
2019-04-06T03:59:59.420Z,81.49
2019-04-06T04:00:34.862Z,81.17
2019-04-06T04:01:10.286Z,81.06
2019-04-06T04:01:45.703Z,81.11
2019-04-06T04:02:21.158Z,81.11
2019-04-06T04:02:56.638Z,81.14
2019-04-06T04:03:32.064Z,81.17
2019-04-06T04:04:07.890Z,81.19
2019-04-06T04:04:43.778Z,81.19
2019-04-06T04:05:19.205Z,80.85
2019-04-06T04:05:54.760Z,80.73
2019-04-06T04:06:30.291Z,80.75
2019-04-06T04:07:05.698Z,81.13
2019-04-06T04:07:41.113Z,81.13
2019-04-06T04:08:16.612Z,81.24
2019-04-06T04:08:52.070Z,81.37
2019-04-06T04:09:27.650Z,81.40
2019-04-06T04:10:03.456Z,81.36
2019-04-06T04:10:41.613Z,81.32
2019-04-06T04:11:16.988Z,81.26
2019-04-06T04:11:52.652Z,81.27
2019-04-06T04:12:28.191Z,81.19
2019-04-06T04:13:03.612Z,81.14
2019-04-06T04:13:39.047Z,81.12
2019-04-06T04:14:14.770Z,81.16
2019-04-06T04:14:50.521Z,81.20
2019-04-06T04:15:25.950Z,81.33
2019-04-06T04:16:01.455Z,81.50
2019-04-06T04:16:37.250Z,81.65
2019-04-06T04:17:12.928Z,81.75
2019-04-06T04:17:48.465Z,81.79
2019-04-06T04:18:23.967Z,81.81
2019-04-06T04:18:59.531Z,81.91
2019-04-06T04:19:35.264Z,81.95
2019-04-06T04:20:11.018Z,82.06
2019-04-06T04:20:46.426Z,82.46
2019-04-06T04:21:21.932Z,82.46
2019-04-06T04:21:57.511Z,82.34
2019-04-06T04:22:35.194Z,82.34
2019-04-06T04:23:10.510Z,82.33
2019-04-06T04:23:46.098Z,82.33
2019-04-06T04:24:21.735Z,82.36
2019-04-06T04:24:57.452Z,82.36
2019-04-06T04:25:32.933Z,82.31
2019-04-06T04:26:08.348Z,82.13
2019-04-06T04:26:44.363Z,81.86
2019-04-06T04:27:28.392Z,81.76
2019-04-06T04:27:57.312Z,81.80
2019-04-06T04:28:33.316Z,81.89
2019-04-06T04:29:09.155Z,81.92
2019-04-06T04:29:44.732Z,81.95
2019-04-06T04:30:32.541Z,81.93
2019-04-06T04:30:57.845Z,81.87
2019-04-06T04:31:33.809Z,81.84
2019-04-06T04:32:09.324Z,81.85
2019-04-06T04:32:44.771Z,81.88
2019-04-06T04:33:20.306Z,81.89
2019-04-06T04:33:56.168Z,81.78
2019-04-06T04:34:31.613Z,82.04
2019-04-06T04:35:07.058Z,82.04
2019-04-06T04:35:42.539Z,81.83
2019-04-06T04:36:18.350Z,81.80
2019-04-06T04:36:53.861Z,81.88
2019-04-06T04:37:29.302Z,81.94
2019-04-06T04:38:04.723Z,81.91
2019-04-06T04:38:40.422Z,81.96
2019-04-06T04:39:15.943Z,81.98
2019-04-06T04:39:51.389Z,81.96
2019-04-06T04:40:26.916Z,81.91
2019-04-06T04:41:02.424Z,81.86
2019-04-06T04:41:39.910Z,81.84
2019-04-06T04:42:15.006Z,81.84
2019-04-06T04:42:50.424Z,81.88
2019-04-06T04:43:25.909Z,81.92
2019-04-06T04:44:01.803Z,81.82
2019-04-06T04:44:37.684Z,81.72
2019-04-06T04:45:13.626Z,81.64
2019-04-06T04:45:49.467Z,81.55
2019-04-06T04:46:24.926Z,81.24
2019-04-06T04:47:00.830Z,80.97
2019-04-06T04:47:36.285Z,80.81
2019-04-06T04:48:11.770Z,80.61
2019-04-06T04:48:47.237Z,80.24
2019-04-06T04:49:22.812Z,80.11
2019-04-06T04:49:58.329Z,80.04
2019-04-06T04:50:33.745Z,80.02
2019-04-06T04:51:09.178Z,79.92
2019-04-06T04:51:44.932Z,79.94
2019-04-06T04:52:20.348Z,79.61
2019-04-06T04:52:55.856Z,79.36
2019-04-06T04:53:31.826Z,79.32
2019-04-06T04:54:07.275Z,79.32
2019-04-06T04:54:42.708Z,79.47
2019-04-06T04:55:18.444Z,79.37
2019-04-06T04:55:54.621Z,79.31
2019-04-06T04:56:30.104Z,79.33
2019-04-06T04:57:06.031Z,79.36
2019-04-06T04:57:44.889Z,79.19
2019-04-06T04:58:19.003Z,79.25
2019-04-06T04:58:54.503Z,79.23
2019-04-06T04:59:29.995Z,79.23
2019-04-06T05:00:05.987Z,78.96
2019-04-06T05:00:41.739Z,78.94
2019-04-06T05:01:17.233Z,79.02
2019-04-06T05:01:52.802Z,79.13
2019-04-06T05:02:28.401Z,79.27
2019-04-06T05:03:03.929Z,79.42
2019-04-06T05:03:40.030Z,79.54
2019-04-06T05:04:15.628Z,79.65
2019-04-06T05:04:51.071Z,79.68
2019-04-06T05:05:26.997Z,79.65
2019-04-06T05:06:02.559Z,79.62
2019-04-06T05:06:37.973Z,79.69
2019-04-06T05:07:13.787Z,79.81
2019-04-06T05:07:49.451Z,79.88
2019-04-06T05:08:24.906Z,79.95
2019-04-06T05:09:00.504Z,79.82
2019-04-06T05:09:35.912Z,79.82
2019-04-06T05:10:11.750Z,79.65
2019-04-06T05:10:47.167Z,79.77
2019-04-06T05:11:23.062Z,79.58
2019-04-06T05:11:58.915Z,79.35
2019-04-06T05:12:34.890Z,79.25
2019-04-06T05:13:10.314Z,79.18
2019-04-06T05:13:45.805Z,79.05
2019-04-06T05:14:58.590Z,79.09
2019-04-06T05:15:52.989Z,79.13
2019-04-06T05:16:28.431Z,79.16
2019-04-06T05:17:03.842Z,79.21
2019-04-06T05:17:39.263Z,79.12
2019-04-06T05:18:14.691Z,79.07
2019-04-06T05:18:50.537Z,79.01
2019-04-06T05:19:26.464Z,79.01
2019-04-06T05:20:01.932Z,79.01
2019-04-06T05:20:37.369Z,78.88
2019-04-06T05:21:13.611Z,78.76
2019-04-06T05:21:49.163Z,78.76
2019-04-06T05:22:24.868Z,78.67
2019-04-06T05:23:00.717Z,78.67
2019-04-06T05:23:36.486Z,78.78
2019-04-06T05:24:12.397Z,78.25
2019-04-06T05:24:48.228Z,78.05
2019-04-06T05:25:23.756Z,77.94
2019-04-06T05:25:59.658Z,77.94
2019-04-06T05:26:37.929Z,77.86
2019-04-06T05:27:13.053Z,77.96
2019-04-06T05:27:52.220Z,77.45
2019-04-06T05:28:26.157Z,77.45
2019-04-06T05:29:02.377Z,77.61
2019-04-06T05:29:37.931Z,77.63
2019-04-06T05:30:14.668Z,76.78
2019-04-06T05:30:50.481Z,76.78
2019-04-06T05:31:26.463Z,76.48
2019-04-06T05:32:02.327Z,75.85
2019-04-06T05:32:37.782Z,75.70
2019-04-06T05:33:13.251Z,76.06
2019-04-06T05:33:49.248Z,76.06
2019-04-06T05:34:24.817Z,76.09
2019-04-06T05:35:00.278Z,76.09
2019-04-06T05:35:36.141Z,76.45
2019-04-06T05:36:12.305Z,76.45
2019-04-06T05:36:47.745Z,76.55
2019-04-06T05:37:23.540Z,76.61
2019-04-06T05:37:59.382Z,76.68
2019-04-06T05:38:34.852Z,76.83
2019-04-06T05:39:10.316Z,76.86
2019-04-06T05:39:45.864Z,76.87
2019-04-06T05:40:21.304Z,76.77
2019-04-06T05:40:56.757Z,76.77
2019-04-06T05:41:32.584Z,76.77
2019-04-06T05:42:08.120Z,76.78
2019-04-06T05:42:43.822Z,76.39
2019-04-06T05:43:19.271Z,76.39
2019-04-06T05:43:54.808Z,76.10
2019-04-06T05:44:30.305Z,76.15
2019-04-06T05:45:06.835Z,76.29
2019-04-06T05:45:42.664Z,76.37
2019-04-06T05:46:18.038Z,75.99
2019-04-06T05:46:53.577Z,75.91
2019-04-06T05:47:29.107Z,75.98
2019-04-06T05:48:04.966Z,76.04
2019-04-06T05:48:41.013Z,76.04
2019-04-06T05:49:16.502Z,76.03
2019-04-06T05:49:52.282Z,75.54
2019-04-06T05:50:27.802Z,74.81
2019-04-06T05:51:03.828Z,74.05
2019-04-06T05:51:39.419Z,73.85
2019-04-06T05:52:14.839Z,74.23
2019-04-06T05:52:50.855Z,73.98
2019-04-06T05:53:26.649Z,73.95
2019-04-06T05:54:02.462Z,73.68
2019-04-06T05:54:38.682Z,73.64
2019-04-06T05:55:14.577Z,73.74
2019-04-06T05:55:50.333Z,73.77
2019-04-06T05:56:26.281Z,73.87
2019-04-06T05:57:01.738Z,73.36
2019-04-06T05:57:38.055Z,73.49
2019-04-06T05:58:14.279Z,73.89
2019-04-06T05:58:50.420Z,73.76
2019-04-06T05:59:26.488Z,74.02
2019-04-06T06:00:02.391Z,74.02
2019-04-06T06:00:39.940Z,74.34
2019-04-06T06:01:16.342Z,74.37
2019-04-06T06:01:52.529Z,73.82
2019-04-06T06:02:28.396Z,73.90
2019-04-06T06:03:04.020Z,73.93
2019-04-06T06:03:40.919Z,73.13
2019-04-06T06:04:17.884Z,73.13
2019-04-06T06:04:53.812Z,73.40
2019-04-06T06:05:29.365Z,73.71
2019-04-06T06:06:04.972Z,73.45
2019-04-06T06:06:40.495Z,73.45
2019-04-06T06:07:15.976Z,73.67
2019-04-06T06:07:51.494Z,74.14
2019-04-06T06:08:26.946Z,74.19
2019-04-06T06:09:02.504Z,74.19
2019-04-06T06:09:38.280Z,74.21
2019-04-06T06:10:13.828Z,74.21
2019-04-06T06:10:49.606Z,73.94
2019-04-06T06:11:25.603Z,73.64
2019-04-06T06:12:01.473Z,73.64
2019-04-06T06:12:36.899Z,74.07
2019-04-06T06:13:12.388Z,74.07
2019-04-06T06:13:47.814Z,73.93
2019-04-06T06:14:23.301Z,73.84
2019-04-06T06:14:58.742Z,73.87
2019-04-06T06:15:34.195Z,73.77
2019-04-06T06:16:11.622Z,73.36
2019-04-06T06:16:47.139Z,73.36
2019-04-06T06:17:22.577Z,73.53
2019-04-06T06:17:58.613Z,73.51
2019-04-06T06:18:34.083Z,73.61
2019-04-06T06:19:09.513Z,73.23
2019-04-06T06:19:45.250Z,72.57
2019-04-06T06:20:20.674Z,72.55
2019-04-06T06:20:56.155Z,72.84
2019-04-06T06:21:31.646Z,72.84
2019-04-06T06:22:07.437Z,72.69
2019-04-06T06:22:43.149Z,72.69
2019-04-06T06:23:18.561Z,72.53
2019-04-06T06:23:54.318Z,71.75
2019-04-06T06:24:29.976Z,71.75
2019-04-06T06:25:05.803Z,72.06
2019-04-06T06:25:41.208Z,72.06
2019-04-06T06:26:16.821Z,72.56
2019-04-06T06:26:52.264Z,72.43
2019-04-06T06:27:27.719Z,72.43
2019-04-06T06:28:13.813Z,72.21
2019-04-06T06:28:40.298Z,72.32
2019-04-06T06:29:15.743Z,72.32
2019-04-06T06:29:51.565Z,72.54
2019-04-06T06:30:27.010Z,72.77
2019-04-06T06:31:02.451Z,72.77
2019-04-06T06:31:38.237Z,72.75
2019-04-06T06:32:13.775Z,72.83
2019-04-06T06:32:49.566Z,72.49
2019-04-06T06:33:25.023Z,72.07
2019-04-06T06:34:00.550Z,72.24
2019-04-06T06:34:35.991Z,72.24
2019-04-06T06:35:11.503Z,71.92
2019-04-06T06:35:46.925Z,71.80
2019-04-06T06:36:22.787Z,72.29
2019-04-06T06:36:58.241Z,72.29
2019-04-06T06:37:34.235Z,71.48
2019-04-06T06:38:09.655Z,71.18
2019-04-06T06:38:45.059Z,71.18
2019-04-06T06:39:20.514Z,71.01
2019-04-06T06:39:56.009Z,71.01
2019-04-06T06:40:31.548Z,70.62
2019-04-06T06:41:06.971Z,70.90
2019-04-06T06:41:42.375Z,70.90
2019-04-06T06:42:17.883Z,69.88
2019-04-06T06:42:53.322Z,69.88
2019-04-06T06:43:28.770Z,70.26
2019-04-06T06:44:04.753Z,70.25
2019-04-06T06:44:40.316Z,69.94
2019-04-06T06:45:16.302Z,69.94
2019-04-06T06:45:53.514Z,70.28
2019-04-06T06:46:29.615Z,70.77
2019-04-06T06:47:05.109Z,70.77
2019-04-06T06:47:41.056Z,70.62
2019-04-06T06:48:16.813Z,69.87
2019-04-06T06:48:52.655Z,69.87
2019-04-06T06:49:28.100Z,69.81
2019-04-06T06:50:04.513Z,69.75
2019-04-06T06:50:40.069Z,69.75
2019-04-06T06:51:15.485Z,69.58
2019-04-06T06:51:51.707Z,69.61
2019-04-06T06:52:27.105Z,69.27
2019-04-06T06:53:02.555Z,69.47
2019-04-06T06:53:38.025Z,69.74
2019-04-06T06:54:13.543Z,69.65
2019-04-06T06:54:49.360Z,69.54
2019-04-06T06:55:26.625Z,69.68
2019-04-06T06:56:01.997Z,68.96
2019-04-06T06:56:37.937Z,68.96
2019-04-06T06:57:13.354Z,69.12
2019-04-06T06:57:48.797Z,69.12
2019-04-06T06:58:25.906Z,69.33
2019-04-06T06:59:01.833Z,69.33
2019-04-06T06:59:37.539Z,68.92
2019-04-06T07:00:13.465Z,69.03
2019-04-06T07:00:48.909Z,69.15
2019-04-06T07:01:24.373Z,69.08
2019-04-06T07:02:01.330Z,69.04
2019-04-06T07:02:36.746Z,68.53
2019-04-06T07:03:12.188Z,68.49
2019-04-06T07:03:47.601Z,68.36
2019-04-06T07:04:23.023Z,68.02
2019-04-06T07:04:58.637Z,68.07
2019-04-06T07:05:34.116Z,68.14
2019-04-06T07:06:09.524Z,68.10
2019-04-06T07:06:44.968Z,67.47
2019-04-06T07:07:20.859Z,67.58
2019-04-06T07:07:56.464Z,67.81
2019-04-06T07:08:32.071Z,67.89
2019-04-06T07:09:08.460Z,67.59
2019-04-06T07:09:44.005Z,67.78
2019-04-06T07:10:19.480Z,68.06
2019-04-06T07:10:56.743Z,67.95
2019-04-06T07:11:32.277Z,67.83
2019-04-06T07:12:07.723Z,67.73
2019-04-06T07:12:43.134Z,67.68
2019-04-06T07:13:18.566Z,67.35
2019-04-06T07:13:54.765Z,67.23
2019-04-06T07:14:30.601Z,67.10
2019-04-06T07:15:07.260Z,66.93
2019-04-06T07:15:43.413Z,66.57
2019-04-06T07:16:19.113Z,66.00
2019-04-06T07:16:54.748Z,66.00
2019-04-06T07:17:30.228Z,65.61
2019-04-06T07:18:06.551Z,65.53
2019-04-06T07:18:41.950Z,65.65
2019-04-06T07:19:17.402Z,65.35
2019-04-06T07:19:52.890Z,64.58
2019-04-06T07:20:28.996Z,64.35
2019-04-06T07:21:04.501Z,63.99
2019-04-06T07:21:40.546Z,64.19
2019-04-06T07:22:15.958Z,65.00
2019-04-06T07:22:51.935Z,64.16
2019-04-06T07:23:27.817Z,63.80
2019-04-06T07:24:03.398Z,63.03
2019-04-06T07:24:39.192Z,63.02
2019-04-06T07:25:14.779Z,63.72
2019-04-06T07:25:57.369Z,64.02
2019-04-06T07:26:27.516Z,63.32
2019-04-06T07:27:02.998Z,63.71
2019-04-06T07:27:38.408Z,63.91
2019-04-06T07:28:13.858Z,63.34
2019-04-06T07:28:49.287Z,62.55
2019-04-06T07:29:24.785Z,62.35
2019-04-06T07:30:00.355Z,62.40
2019-04-06T07:30:35.815Z,62.40
2019-04-06T07:31:11.219Z,62.56
2019-04-06T07:31:46.642Z,62.84
2019-04-06T07:32:22.102Z,63.11
2019-04-06T07:32:57.844Z,61.99
2019-04-06T07:33:33.366Z,62.01
2019-04-06T07:34:09.231Z,61.82
2019-04-06T07:34:44.976Z,61.87
2019-04-06T07:35:20.969Z,61.95
2019-04-06T07:35:56.430Z,62.00
2019-04-06T07:36:32.298Z,61.24
2019-04-06T07:37:08.056Z,61.49
2019-04-06T07:37:43.484Z,61.22
2019-04-06T07:38:18.921Z,61.89
2019-04-06T07:38:54.989Z,60.62
2019-04-06T07:39:30.526Z,60.62
2019-04-06T07:40:07.626Z,60.40
2019-04-06T07:40:43.715Z,59.96
2019-04-06T07:41:19.142Z,60.75
2019-04-06T07:41:55.140Z,60.52
2019-04-06T07:42:30.723Z,60.07
2019-04-06T07:43:06.238Z,59.11
2019-04-06T07:43:41.996Z,59.02
2019-04-06T07:44:18.241Z,59.02
2019-04-06T07:44:53.754Z,59.20
2019-04-06T07:45:29.264Z,57.99
2019-04-06T07:46:05.104Z,57.62